Time;durP1;ratioP1;P1;durP2;ratioP2;P2;SDS_P1;SDS_P2;PMS_P1;PMS_P2;Temp;Humidity;BMP_temperature;BMP_pressure;BME280_temperature;BME280_humidity;BME280_pressure;Samples;Min_cycle;Max_cycle;Signal;HPM_P1;HPM_P2
2023/05/31 00:01:41;;;;;;;12.50;5.70;;;;;;;11.57;100.00;101050.23;109898;1241;59047;-70
2023/05/31 00:04:10;;;;;;;8.40;4.90;;;;;;;11.54;100.00;101047.30;109876;1240;62608;-70
2023/05/31 00:06:39;;;;;;;10.20;5.50;;;;;;;11.45;100.00;101048.15;109893;1241;58158;-70
2023/05/31 00:09:08;;;;;;;10.70;5.20;;;;;;;11.42;100.00;101051.81;109897;1241;57672;-70
2023/05/31 00:11:36;;;;;;;13.80;5.50;;;;;;;11.35;100.00;101057.84;109917;1240;73300;-70
2023/05/31 00:14:05;;;;;;;12.10;5.20;;;;;;;11.30;100.00;101060.13;109788;1241;62076;-71
2023/05/31 00:16:34;;;;;;;8.90;4.80;;;;;;;11.28;100.00;101064.09;109821;1240;59196;-70
2023/05/31 00:19:06;;;;;;;10.90;5.30;;;;;;;11.24;100.00;101063.19;109883;1241;72788;-71
2023/05/31 00:21:35;;;;;;;9.30;5.20;;;;;;;11.21;100.00;101065.34;109846;1240;62793;-70
2023/05/31 00:24:04;;;;;;;10.40;5.20;;;;;;;11.22;100.00;101071.86;109866;1241;59671;-71
2023/05/31 00:26:33;;;;;;;10.60;5.00;;;;;;;11.23;100.00;101077.17;109860;1240;72852;-69
2023/05/31 00:29:02;;;;;;;11.20;5.20;;;;;;;11.21;100.00;101067.91;109763;1241;72123;-69
2023/05/31 00:31:31;;;;;;;10.60;5.80;;;;;;;11.22;100.00;101072.37;109750;1242;70887;-69
2023/05/31 00:34:00;;;;;;;10.00;5.80;;;;;;;11.21;100.00;101073.86;109723;1241;63614;-70
2023/05/31 00:36:30;;;;;;;8.00;4.70;;;;;;;11.19;100.00;101074.54;109698;1241;58287;-70
2023/05/31 00:38:59;;;;;;;9.10;4.80;;;;;;;11.17;100.00;101070.63;109749;1240;58246;-70
2023/05/31 00:41:28;;;;;;;10.50;5.10;;;;;;;11.15;100.00;101069.53;109842;1240;74316;-70
2023/05/31 00:43:56;;;;;;;9.60;5.30;;;;;;;11.14;100.00;101069.08;109714;1240;72478;-71
2023/05/31 00:46:33;;;;;;;9.70;5.40;;;;;;;11.15;100.00;101067.98;109597;1240;60328;-69
2023/05/31 00:49:02;;;;;;;11.70;6.00;;;;;;;11.19;100.00;101067.23;109480;1241;73022;-71
2023/05/31 00:51:33;;;;;;;12.80;5.70;;;;;;;11.19;100.00;101064.25;109451;1244;63397;-70
2023/05/31 00:54:02;;;;;;;11.20;5.40;;;;;;;11.17;100.00;101067.51;109561;1241;62329;-69
2023/05/31 00:56:31;;;;;;;8.10;4.60;;;;;;;11.10;100.00;101067.10;109554;1240;73972;-69
2023/05/31 00:59:00;;;;;;;12.30;5.50;;;;;;;11.07;100.00;101065.42;109683;1241;62347;-69
2023/05/31 01:01:32;;;;;;;9.50;5.20;;;;;;;11.10;100.00;101066.58;109615;1240;69625;-70
2023/05/31 01:04:02;;;;;;;11.00;5.20;;;;;;;11.08;100.00;101067.57;109482;1241;62835;-70
2023/05/31 01:06:34;;;;;;;9.90;5.10;;;;;;;11.04;100.00;101068.95;109696;1242;62608;-69
2023/05/31 01:09:06;;;;;;;10.60;4.50;;;;;;;11.01;100.00;101068.93;109761;1241;58228;-70
2023/05/31 01:12:12;;;;;;;9.80;4.70;;;;;;;10.98;100.00;101071.25;109607;1240;74305;-70
2023/05/31 01:15:07;;;;;;;12.20;5.30;;;;;;;10.99;100.00;101072.42;109824;1241;72825;-69
2023/05/31 01:18:00;;;;;;;8.30;4.40;;;;;;;10.89;100.00;101081.43;109747;1240;70738;-69
2023/05/31 01:20:35;;;;;;;9.20;4.90;;;;;;;10.85;100.00;101081.20;109525;1241;74079;-70
2023/05/31 01:23:22;;;;;;;9.60;4.90;;;;;;;10.81;100.00;101083.73;109549;1242;57854;-71
2023/05/31 01:26:30;;;;;;;11.70;5.00;;;;;;;10.75;100.00;101082.58;109629;1240;58217;-71
2023/05/31 01:29:12;;;;;;;10.00;5.20;;;;;;;10.61;100.00;101084.52;109618;1241;63739;-69
2023/05/31 01:31:42;;;;;;;10.20;5.10;;;;;;;10.58;100.00;101084.05;109621;1240;71514;-69
2023/05/31 01:34:12;;;;;;;9.20;5.40;;;;;;;10.54;100.00;101085.36;109614;1240;60647;-69
2023/05/31 01:36:42;;;;;;;9.90;4.90;;;;;;;10.47;100.00;101086.18;109442;1240;73876;-70
2023/05/31 01:39:12;;;;;;;12.70;5.30;;;;;;;10.42;100.00;101086.19;109578;1242;63399;-71
2023/05/31 01:41:45;;;;;;;8.70;5.00;;;;;;;10.37;100.00;101091.02;109403;1241;58186;-71
2023/05/31 01:44:18;;;;;;;13.10;5.70;;;;;;;10.33;100.00;101089.84;109459;1244;63715;-71
2023/05/31 01:46:48;;;;;;;9.50;5.00;;;;;;;10.33;100.00;101090.88;109460;1241;60919;-70
2023/05/31 01:49:17;;;;;;;10.10;5.30;;;;;;;10.36;100.00;101094.55;109445;1240;59226;-70
2023/05/31 01:51:47;;;;;;;9.10;4.70;;;;;;;10.35;100.00;101095.98;109174;1241;371317;-70
2023/05/31 01:54:16;;;;;;;9.40;5.00;;;;;;;10.28;100.00;101089.12;109557;1242;58348;-70
2023/05/31 01:56:45;;;;;;;12.60;5.20;;;;;;;10.28;100.00;101097.70;109694;1242;57779;-70
2023/05/31 01:59:15;;;;;;;9.50;4.80;;;;;;;10.25;100.00;101099.94;109380;1241;64801;-69
2023/05/31 02:01:46;;;;;;;9.90;4.90;;;;;;;10.27;100.00;101100.38;109609;1240;72746;-69
2023/05/31 02:04:19;;;;;;;9.60;4.70;;;;;;;10.28;100.00;101102.02;109588;1244;60601;-69
2023/05/31 02:06:48;;;;;;;;;;;;;;;10.29;100.00;101105.63;109608;1240;62710;-69
2023/05/31 02:09:16;;;;;;;9.60;5.10;;;;;;;10.26;100.00;101103.58;109664;1240;62854;-69
2023/05/31 02:11:45;;;;;;;9.10;4.90;;;;;;;10.20;100.00;101102.85;109618;1240;61179;-68
2023/05/31 02:14:14;;;;;;;10.70;5.40;;;;;;;10.16;100.00;101103.17;109612;1242;63502;-70
2023/05/31 02:16:43;;;;;;;10.90;4.70;;;;;;;10.12;100.00;101104.95;109847;1240;70650;-70
2023/05/31 02:19:14;;;;;;;8.50;5.10;;;;;;;10.12;100.00;101105.84;109736;1241;71001;-70
2023/05/31 02:21:43;;;;;;;9.60;5.30;;;;;;;10.08;100.00;101107.11;109695;1244;63202;-69
2023/05/31 02:24:12;;;;;;;10.60;4.80;;;;;;;10.04;100.00;101111.38;109729;1242;58419;-70
2023/05/31 02:26:42;;;;;;;9.50;5.20;;;;;;;10.01;100.00;101109.31;109714;1242;58256;-70
2023/05/31 02:29:11;;;;;;;10.30;4.80;;;;;;;10.04;100.00;101107.91;109848;1241;64356;-70
2023/05/31 02:31:40;;;;;;;8.70;5.00;;;;;;;10.05;100.00;101110.09;109720;1240;72181;-69
2023/05/31 02:34:09;;;;;;;10.50;4.80;;;;;;;10.09;100.00;101114.36;109742;1242;59589;-70
2023/05/31 02:36:38;;;;;;;9.30;5.00;;;;;;;10.09;100.00;101119.73;109626;1241;73809;-70
2023/05/31 02:39:06;;;;;;;10.90;5.10;;;;;;;10.09;100.00;101120.13;109721;1242;63544;-69
2023/05/31 02:41:35;;;;;;;10.30;5.30;;;;;;;10.11;100.00;101125.05;109690;1243;57823;-68
2023/05/31 02:44:05;;;;;;;9.80;5.00;;;;;;;10.13;100.00;101129.98;109772;1240;73577;-69
2023/05/31 02:46:33;;;;;;;9.30;5.00;;;;;;;10.13;100.00;101133.29;109742;1240;72550;-68
2023/05/31 02:49:02;;;;;;;11.80;5.00;;;;;;;10.14;100.00;101135.45;109858;1240;60285;-69
2023/05/31 02:51:31;;;;;;;9.70;5.20;;;;;;;10.17;100.00;101133.89;109778;1243;63269;-69
2023/05/31 02:54:18;;;;;;;9.40;4.80;;;;;;;10.21;100.00;101134.30;109848;1242;62004;-68
2023/05/31 02:56:47;;;;;;;8.30;5.00;;;;;;;10.27;100.00;101136.76;109781;1240;62003;-69
2023/05/31 02:59:21;;;;;;;9.80;5.70;;;;;;;10.33;100.00;101142.25;109764;1243;64693;-70
2023/05/31 03:02:00;;;;;;;10.00;5.50;;;;;;;10.40;100.00;101144.97;109679;1240;70554;-68
2023/05/31 03:04:56;;;;;;;13.50;6.10;;;;;;;10.46;100.00;101146.70;109759;1242;60389;-70
2023/05/31 03:07:26;;;;;;;9.70;5.30;;;;;;;10.51;100.00;101148.73;109716;1244;73840;-70
2023/05/31 03:09:55;;;;;;;11.20;6.00;;;;;;;10.59;100.00;101148.45;109762;1239;62459;-70
2023/05/31 03:12:24;;;;;;;9.20;5.40;;;;;;;10.70;100.00;101151.16;109664;1242;58199;-71
2023/05/31 03:14:53;;;;;;;11.30;6.10;;;;;;;10.79;100.00;101152.33;109608;1243;63777;-71
2023/05/31 03:17:22;;;;;;;9.20;5.70;;;;;;;10.91;100.00;101156.27;109639;1242;61621;-71
2023/05/31 03:19:51;;;;;;;11.10;5.90;;;;;;;11.02;100.00;101154.33;109676;1242;69628;-70
2023/05/31 03:22:22;;;;;;;12.40;5.70;;;;;;;11.09;100.00;101155.73;109601;1242;63730;-70
2023/05/31 03:24:52;;;;;;;9.80;5.70;;;;;;;11.16;100.00;101156.27;109663;1242;62960;-70
2023/05/31 03:27:21;;;;;;;14.70;6.10;;;;;;;11.24;100.00;101156.10;109722;1241;60860;-71
2023/05/31 03:29:52;;;;;;;16.40;9.00;;;;;;;11.31;100.00;101156.27;109676;1242;63519;-70
2023/05/31 03:32:21;;;;;;;10.10;6.20;;;;;;;11.38;100.00;101153.56;109708;1242;61744;-71
2023/05/31 03:34:50;;;;;;;13.20;6.50;;;;;;;11.45;100.00;101151.85;109586;1243;59556;-70
2023/05/31 03:37:19;;;;;;;11.70;5.80;;;;;;;11.54;100.00;101152.65;109653;1240;63189;-70
2023/05/31 03:40:04;;;;;;;15.00;7.10;;;;;;;11.65;100.00;101156.58;109770;1242;62838;-70
2023/05/31 03:42:33;;;;;;;13.30;6.60;;;;;;;11.75;100.00;101161.45;109827;1240;59749;-70
2023/05/31 03:45:02;;;;;;;18.30;7.50;;;;;;;11.85;100.00;101164.45;109720;1240;75032;-70
2023/05/31 03:47:31;;;;;;;14.30;6.80;;;;;;;11.95;100.00;101169.71;109636;1244;61996;-70
2023/05/31 03:50:00;;;;;;;9.50;5.90;;;;;;;12.04;100.00;101169.58;109796;1243;59946;-70
2023/05/31 03:52:29;;;;;;;16.80;6.90;;;;;;;12.13;100.00;101165.27;109864;1242;62542;-71
2023/05/31 03:54:59;;;;;;;13.10;7.20;;;;;;;12.18;100.00;101164.19;109817;1241;58342;-70
2023/05/31 03:57:28;;;;;;;15.40;6.70;;;;;;;12.28;100.00;101168.38;109631;1245;61162;-72
2023/05/31 03:59:59;;;;;;;14.40;6.40;;;;;;;12.39;100.00;101172.50;109807;1244;74567;-71
2023/05/31 04:02:29;;;;;;;17.40;6.30;;;;;;;12.45;100.00;101172.01;109895;1242;61784;-69
2023/05/31 04:04:58;;;;;;;21.70;7.30;;;;;;;12.56;100.00;101173.52;109822;1241;59155;-70
2023/05/31 04:07:27;;;;;;;15.50;7.00;;;;;;;12.69;100.00;101175.54;109775;1243;62503;-70
2023/05/31 04:09:56;;;;;;;13.60;7.40;;;;;;;12.81;100.00;101173.23;109825;1244;57823;-70
2023/05/31 04:12:25;;;;;;;17.30;7.50;;;;;;;12.91;100.00;101175.98;109807;1240;57777;-63
2023/05/31 04:14:54;;;;;;;16.40;7.50;;;;;;;13.04;100.00;101179.38;109690;1244;62999;-62
2023/05/31 04:17:23;;;;;;;14.30;7.40;;;;;;;13.22;100.00;101181.15;109876;1242;72713;-62
2023/05/31 04:19:52;;;;;;;18.20;7.40;;;;;;;13.34;100.00;101182.55;109883;1242;60466;-62
2023/05/31 04:22:22;;;;;;;15.70;8.00;;;;;;;13.42;100.00;101181.41;109846;1242;62496;-62
2023/05/31 04:24:51;;;;;;;16.80;7.20;;;;;;;13.51;100.00;101186.29;109743;1241;57740;-63
2023/05/31 04:27:25;;;;;;;19.70;7.40;;;;;;;13.63;100.00;101192.38;109887;1241;60952;-62
2023/05/31 04:29:57;;;;;;;19.50;7.60;;;;;;;13.74;100.00;101192.74;109758;1241;64300;-63
2023/05/31 04:32:26;;;;;;;15.60;7.20;;;;;;;13.92;99.97;101190.29;109974;1239;71466;-63
2023/05/31 04:34:58;;;;;;;19.10;7.10;;;;;;;14.09;99.78;101189.41;109862;1239;70852;-63
2023/05/31 04:37:33;;;;;;;13.30;6.70;;;;;;;14.28;99.94;101188.09;109878;1241;73395;-62
2023/05/31 04:40:08;;;;;;;13.40;6.90;;;;;;;14.42;98.93;101186.60;109810;1242;58315;-71
2023/05/31 04:42:38;;;;;;;12.40;7.30;;;;;;;14.52;98.93;101196.52;109932;1240;58334;-64
2023/05/31 04:45:11;;;;;;;;;;;;;;;14.58;99.40;101203.27;109910;1241;62987;-64
2023/05/31 04:47:49;;;;;;;14.80;7.20;;;;;;;14.66;99.21;101199.84;109856;1240;61695;-65
2023/05/31 04:50:19;;;;;;;12.50;6.90;;;;;;;14.77;98.79;101187.87;109587;1239;70005;-64
2023/05/31 04:52:48;;;;;;;15.70;7.60;;;;;;;14.96;98.39;101196.98;109709;1240;64605;-63
2023/05/31 04:55:18;;;;;;;13.10;7.40;;;;;;;15.12;98.48;101201.42;109847;1242;58283;-62
2023/05/31 04:57:47;;;;;;;15.60;7.90;;;;;;;15.26;98.52;101201.51;109568;1239;60648;-62
2023/05/31 05:00:17;;;;;;;12.70;7.10;;;;;;;15.32;98.41;101198.99;109785;1241;74455;-62
2023/05/31 05:02:56;;;;;;;14.20;7.80;;;;;;;15.40;98.33;101192.92;109749;1241;72646;-62
2023/05/31 05:05:25;;;;;;;16.00;7.80;;;;;;;15.47;98.24;101193.75;109877;1240;59422;-63
2023/05/31 05:07:54;;;;;;;15.70;7.70;;;;;;;15.53;98.30;101197.75;109804;1242;73860;-63
2023/05/31 05:10:24;;;;;;;16.60;8.40;;;;;;;15.63;98.67;101197.27;109823;1242;63880;-68
2023/05/31 05:12:53;;;;;;;13.50;7.50;;;;;;;15.71;98.89;101201.91;109846;1239;57808;-61
2023/05/31 05:15:22;;;;;;;17.10;7.40;;;;;;;15.81;98.34;101197.83;109769;1239;63593;-67
2023/05/31 05:17:51;;;;;;;11.80;6.90;;;;;;;15.91;98.27;101198.86;109859;1240;62070;-62
2023/05/31 05:20:20;;;;;;;15.40;7.00;;;;;;;16.05;96.65;101202.90;109891;1239;61529;-61
2023/05/31 05:22:51;;;;;;;12.30;6.80;;;;;;;16.14;95.97;101207.92;109845;1240;73741;-63
2023/05/31 05:25:22;;;;;;;14.20;7.40;;;;;;;16.24;95.15;101214.48;109645;1244;61128;-61
2023/05/31 05:27:51;;;;;;;14.20;6.80;;;;;;;16.42;93.83;101212.11;109773;1241;58309;-63
2023/05/31 05:30:20;;;;;;;10.50;6.70;;;;;;;16.68;91.51;101209.63;109924;1240;63590;-63
2023/05/31 05:32:49;;;;;;;12.30;6.70;;;;;;;16.94;89.84;101213.45;109913;1239;71401;-64
2023/05/31 05:35:18;;;;;;;12.40;6.80;;;;;;;17.14;86.54;101214.95;109873;1240;61706;-63
2023/05/31 05:37:48;;;;;;;10.00;6.70;;;;;;;17.37;85.58;101209.27;109744;1241;63331;-68
2023/05/31 05:40:17;;;;;;;10.80;5.80;;;;;;;17.61;83.40;101208.41;109813;1242;61036;-66
2023/05/31 05:42:48;;;;;;;14.00;6.00;;;;;;;17.80;81.23;101209.67;109857;1241;61663;-66
2023/05/31 05:45:17;;;;;;;10.70;6.30;;;;;;;17.95;80.47;101206.86;109805;1241;75759;-66
2023/05/31 05:47:48;;;;;;;9.50;5.80;;;;;;;18.08;79.56;101209.70;109720;1240;62026;-67
2023/05/31 05:50:18;;;;;;;10.60;5.90;;;;;;;18.22;77.56;101211.25;109733;1239;59249;-67
2023/05/31 05:52:47;;;;;;;12.20;5.40;;;;;;;18.37;76.39;101213.22;109882;1241;63416;-68
2023/05/31 05:55:16;;;;;;;10.90;5.60;;;;;;;18.46;75.95;101212.84;109839;1242;57770;-67
2023/05/31 05:57:45;;;;;;;8.30;5.40;;;;;;;18.61;76.40;101209.23;109743;1240;60388;-67
2023/05/31 06:01:02;;;;;;;15.00;6.10;;;;;;;18.77;66.15;101212.95;109800;1239;74916;-67
2023/05/31 06:03:31;;;;;;;11.10;5.90;;;;;;;18.82;63.95;101213.55;109806;1240;61775;-67
2023/05/31 06:06:01;;;;;;;10.40;5.70;;;;;;;18.97;63.84;101214.74;109816;1239;60812;-67
2023/05/31 06:08:30;;;;;;;10.70;5.90;;;;;;;19.03;61.79;101210.55;109776;1240;63303;-67
2023/05/31 06:10:59;;;;;;;8.80;5.40;;;;;;;19.18;61.68;101208.54;109700;1239;60427;-67
2023/05/31 06:13:28;;;;;;;12.10;5.70;;;;;;;19.33;61.99;101211.06;109849;1240;60489;-67
2023/05/31 06:16:02;;;;;;;9.50;5.70;;;;;;;19.47;61.30;101214.60;109826;1239;64441;-66
2023/05/31 06:18:31;;;;;;;12.90;6.60;;;;;;;19.54;60.95;101215.97;109601;1240;72842;-69
2023/05/31 06:21:00;;;;;;;10.80;5.80;;;;;;;19.61;60.15;101220.30;109727;1239;70056;-67
2023/05/31 06:23:30;;;;;;;7.80;5.50;;;;;;;19.67;59.80;101213.45;109670;1241;74184;-67
2023/05/31 06:25:59;;;;;;;8.80;5.40;;;;;;;19.73;60.15;101216.19;109756;1241;58257;-66
2023/05/31 06:28:28;;;;;;;9.40;5.80;;;;;;;19.80;58.77;101223.58;109793;1240;57741;-67
2023/05/31 06:31:03;;;;;;;10.90;5.70;;;;;;;19.88;58.83;101225.90;109791;1239;63819;-67
2023/05/31 06:33:33;;;;;;;6.90;4.70;;;;;;;19.96;58.44;101225.31;109658;1240;70492;-68
2023/05/31 06:36:02;;;;;;;10.00;5.10;;;;;;;20.04;58.72;101218.05;109620;1240;60445;-68
2023/05/31 06:38:32;;;;;;;9.10;5.70;;;;;;;20.16;58.69;101214.05;109470;1240;64908;-66
2023/05/31 06:41:01;;;;;;;11.40;5.80;;;;;;;20.27;58.28;101214.60;109514;1240;57820;-65
2023/05/31 06:43:30;;;;;;;10.90;6.00;;;;;;;20.38;58.12;101216.42;109578;1241;58632;-68
2023/05/31 06:46:16;;;;;;;14.70;5.40;;;;;;;20.44;58.11;101218.48;109666;1240;74868;-68
2023/05/31 06:49:20;;;;;;;12.20;5.60;;;;;;;20.51;56.92;101221.59;109586;1240;61553;-67
2023/05/31 06:51:52;;;;;;;12.00;5.90;;;;;;;20.55;57.05;101223.16;109634;1240;69892;-67
2023/05/31 06:54:29;;;;;;;9.80;5.40;;;;;;;20.68;56.98;101223.48;109646;1240;62840;-67
2023/05/31 06:56:59;;;;;;;9.60;5.70;;;;;;;20.78;56.61;101222.62;109442;1241;60374;-67
2023/05/31 06:59:28;;;;;;;11.60;5.40;;;;;;;20.86;56.59;101222.49;109399;1241;61871;-67
2023/05/31 07:01:57;;;;;;;14.70;5.40;;;;;;;20.96;55.94;101224.59;109447;1241;64219;-67
2023/05/31 07:04:26;;;;;;;10.20;5.00;;;;;;;20.99;55.66;101224.39;109568;1239;61170;-69
2023/05/31 07:06:56;;;;;;;6.50;4.90;;;;;;;21.13;55.33;101228.87;109631;1240;70722;-69
2023/05/31 07:09:25;;;;;;;8.50;5.70;;;;;;;21.19;54.66;101225.25;109605;1240;64096;-69
2023/05/31 07:11:57;;;;;;;13.20;4.70;;;;;;;21.23;54.03;101221.26;109467;1245;61642;-68
2023/05/31 07:14:28;;;;;;;7.10;5.10;;;;;;;21.45;54.87;101221.58;109828;1239;58322;-69
2023/05/31 07:16:58;;;;;;;11.30;5.20;;;;;;;21.59;53.38;101221.05;109688;1239;73546;-68
2023/05/31 07:19:29;;;;;;;9.90;5.60;;;;;;;21.66;53.37;101221.83;109726;1240;72184;-69
2023/05/31 07:21:57;;;;;;;9.40;5.30;;;;;;;21.70;53.54;101229.75;109878;1239;71166;-68
2023/05/31 07:24:26;;;;;;;9.20;4.80;;;;;;;21.80;53.79;101225.30;109802;1239;64848;-68
2023/05/31 07:26:55;;;;;;;8.90;5.40;;;;;;;21.85;52.94;101225.54;109898;1241;58292;-68
2023/05/31 07:29:24;;;;;;;9.00;4.40;;;;;;;21.97;52.48;101220.65;109891;1239;57794;-68
2023/05/31 07:31:53;;;;;;;10.40;4.50;;;;;;;22.09;52.01;101222.52;109715;1240;63909;-67
2023/05/31 07:34:22;;;;;;;12.70;4.90;;;;;;;22.21;51.59;101223.62;109992;1240;61754;-67
2023/05/31 07:36:51;;;;;;;7.60;4.90;;;;;;;22.37;50.32;101213.11;109629;1240;59891;-68
2023/05/31 07:39:21;;;;;;;8.70;4.80;;;;;;;22.50;49.87;101214.27;109981;1239;63381;-68
2023/05/31 07:41:51;;;;;;;8.70;4.70;;;;;;;22.58;50.04;101217.10;109873;1242;58352;-69
2023/05/31 07:44:22;;;;;;;11.20;4.80;;;;;;;22.69;49.86;101209.27;109795;1240;58269;-68
2023/05/31 07:46:51;;;;;;;8.10;4.30;;;;;;;22.77;48.87;101205.98;110011;1239;63706;-67
2023/05/31 07:49:20;;;;;;;9.40;4.90;;;;;;;22.82;48.58;101210.80;109883;1240;70532;-68
2023/05/31 07:51:49;;;;;;;8.40;4.40;;;;;;;22.91;48.84;101209.48;109976;1239;60631;-72
2023/05/31 07:54:18;;;;;;;10.00;4.50;;;;;;;23.04;48.12;101202.36;109749;1242;71798;-70
2023/05/31 07:56:47;;;;;;;10.70;5.60;;;;;;;23.11;48.26;101206.82;109742;1241;60112;-68
2023/05/31 07:59:16;;;;;;;8.10;4.40;;;;;;;23.19;48.16;101202.85;109861;1241;57725;-68
2023/05/31 08:01:46;;;;;;;10.80;4.80;;;;;;;23.33;48.14;101195.74;109807;1240;74341;-68
2023/05/31 08:04:15;;;;;;;8.60;4.40;;;;;;;23.45;47.73;101196.33;109937;1240;61635;-69
2023/05/31 08:06:45;;;;;;;8.60;4.70;;;;;;;23.54;47.94;101199.46;109713;1240;69707;-69
2023/05/31 08:09:14;;;;;;;12.60;5.20;;;;;;;23.62;47.77;101196.85;109828;1240;72912;-69
2023/05/31 08:11:43;;;;;;;9.10;4.40;;;;;;;23.76;47.74;101202.62;109522;1240;62706;-70
2023/05/31 08:14:12;;;;;;;6.80;4.40;;;;;;;23.62;47.57;101194.58;109706;1239;58401;-69
2023/05/31 08:16:41;;;;;;;8.30;4.50;;;;;;;23.54;47.63;101191.09;109737;1240;63661;-69
2023/05/31 08:19:11;;;;;;;8.80;4.60;;;;;;;23.58;48.23;101198.81;109723;1240;61792;-69
2023/05/31 08:21:40;;;;;;;8.00;4.50;;;;;;;23.70;48.73;101204.84;109726;1241;71244;-68
2023/05/31 08:24:09;;;;;;;9.80;4.60;;;;;;;23.81;47.73;101200.83;109768;1240;62964;-69
2023/05/31 08:26:38;;;;;;;8.70;4.50;;;;;;;23.89;47.44;101203.60;109692;1242;57849;-69
2023/05/31 08:29:07;;;;;;;8.50;4.60;;;;;;;23.88;47.31;101202.41;109814;1240;61162;-69
2023/05/31 08:31:36;;;;;;;7.60;4.10;;;;;;;23.98;47.29;101202.90;109558;1240;74814;-68
2023/05/31 08:34:06;;;;;;;9.30;4.40;;;;;;;24.11;46.90;101202.02;109880;1240;72712;-69
2023/05/31 08:36:35;;;;;;;6.90;4.20;;;;;;;24.15;47.05;101198.21;109708;1240;68627;-69
2023/05/31 08:39:06;;;;;;;11.90;4.60;;;;;;;24.09;47.03;101195.66;109563;1240;63958;-69
2023/05/31 08:41:53;;;;;;;10.10;4.20;;;;;;;24.11;46.85;101197.05;109908;1241;61288;-69
2023/05/31 08:44:23;;;;;;;7.40;4.10;;;;;;;24.10;45.79;101191.65;109908;1241;57712;-69
2023/05/31 08:46:52;;;;;;;7.70;4.00;;;;;;;24.04;45.79;101197.34;109796;1239;74299;-68
2023/05/31 08:49:21;;;;;;;9.30;4.40;;;;;;;23.96;46.48;101185.84;109883;1241;72471;-69
2023/05/31 08:51:50;;;;;;;8.00;3.90;;;;;;;24.15;46.04;101184.44;109845;1240;69994;-69
2023/05/31 08:54:19;;;;;;;10.50;4.00;;;;;;;24.33;46.21;101181.29;109937;1240;73264;-70
2023/05/31 08:56:50;;;;;;;11.30;4.20;;;;;;;24.49;45.55;101183.61;109930;1241;61077;-69
2023/05/31 08:59:19;;;;;;;6.70;4.20;;;;;;;24.52;44.12;101184.58;109651;1240;61200;-68
2023/05/31 09:01:49;;;;;;;6.90;3.70;;;;;;;24.55;44.16;101181.90;109856;1242;64247;-68
2023/05/31 09:04:18;;;;;;;7.90;4.20;;;;;;;24.54;44.32;101183.98;109857;1241;61754;-69
2023/05/31 09:06:48;;;;;;;7.10;4.10;;;;;;;24.59;44.81;101176.14;109597;1240;70429;-68
2023/05/31 09:09:19;;;;;;;5.80;3.80;;;;;;;24.76;44.37;101168.11;109567;1240;64082;-67
2023/05/31 09:11:49;;;;;;;10.30;4.20;;;;;;;24.85;43.59;101173.83;109497;1244;57834;-68
2023/05/31 09:14:17;;;;;;;7.50;4.00;;;;;;;24.90;43.47;101172.88;109835;1239;61117;-69
2023/05/31 09:16:50;;;;;;;8.00;3.60;;;;;;;24.96;43.07;101171.08;109864;1240;74224;-67
2023/05/31 09:19:19;;;;;;;;;;;;;;;25.10;42.74;101170.21;109679;1241;62021;-68
2023/05/31 09:21:47;;;;;;;7.50;3.60;;;;;;;25.22;43.39;101165.52;109841;1240;70494;-69
2023/05/31 09:24:16;;;;;;;5.70;3.60;;;;;;;25.26;41.72;101169.53;109809;1241;63748;-67
2023/05/31 09:26:50;;;;;;;9.10;3.80;;;;;;;25.19;40.27;101165.71;109701;1242;58373;-69
2023/05/31 09:29:20;;;;;;;6.40;3.80;;;;;;;25.35;39.73;101158.40;109757;1242;58282;-69
2023/05/31 09:32:07;;;;;;;10.40;3.80;;;;;;;25.30;39.96;101155.89;109579;1244;64391;-69
2023/05/31 09:34:36;;;;;;;8.50;3.80;;;;;;;25.32;40.57;101151.19;109609;1240;61529;-68
2023/05/31 09:37:06;;;;;;;5.60;3.50;;;;;;;25.40;40.47;101147.90;109581;1240;62533;-68
2023/05/31 09:39:35;;;;;;;6.60;3.50;;;;;;;25.51;39.83;101146.52;109324;1240;64113;-69
2023/05/31 09:42:15;;;;;;;13.20;4.20;;;;;;;25.68;39.48;101145.29;109362;1245;60573;-68
2023/05/31 09:44:48;;;;;;;10.10;3.90;;;;;;;25.74;39.05;101143.13;109316;1247;58469;-69
2023/05/31 09:47:27;;;;;;;9.80;3.70;;;;;;;25.66;38.65;101141.57;109606;1240;62827;-72
2023/05/31 09:49:57;;;;;;;9.50;4.00;;;;;;;25.64;38.87;101138.60;109459;1240;63573;-68
2023/05/31 09:52:32;;;;;;;9.00;3.70;;;;;;;25.82;38.58;101137.03;109412;1241;69776;-68
2023/05/31 09:55:06;;;;;;;7.10;3.50;;;;;;;25.95;37.84;101134.23;109288;1239;63647;-69
2023/05/31 09:57:41;;;;;;;6.50;3.40;;;;;;;26.08;37.17;101133.45;109588;1244;61407;-69
2023/05/31 10:00:14;;;;;;;7.30;3.80;;;;;;;26.28;36.66;101130.58;109689;1240;58247;-69
2023/05/31 10:02:51;;;;;;;7.00;3.40;;;;;;;26.30;36.75;101126.08;109885;1241;73896;-68
2023/05/31 10:05:21;;;;;;;8.00;3.50;;;;;;;26.39;36.53;101122.35;109900;1241;61985;-69
2023/05/31 10:07:51;;;;;;;7.20;3.50;;;;;;;26.44;36.02;101123.11;109610;1240;69539;-70
2023/05/31 10:10:21;;;;;;;7.10;3.30;;;;;;;26.47;36.38;101119.69;109698;1241;73686;-69
2023/05/31 10:12:54;;;;;;;8.70;3.70;;;;;;;26.40;35.86;101121.08;109789;1242;58392;-69
2023/05/31 10:15:26;;;;;;;7.00;3.40;;;;;;;26.48;35.77;101116.73;109958;1240;57833;-70
2023/05/31 10:18:01;;;;;;;7.30;3.50;;;;;;;26.65;35.39;101121.89;109825;1242;73620;-69
2023/05/31 10:20:41;;;;;;;4.50;3.10;;;;;;;26.84;36.00;101116.70;109828;1240;63551;-68
2023/05/31 10:23:41;;;;;;;5.70;3.30;;;;;;;27.28;34.90;101121.10;109758;1242;60345;-69
2023/05/31 10:26:17;;;;;;;5.80;3.50;;;;;;;27.55;34.34;101111.02;109824;1241;63515;-68
2023/05/31 10:29:01;;;;;;;8.50;3.30;;;;;;;27.55;33.95;101110.45;109572;1244;58509;-69
2023/05/31 10:31:40;;;;;;;6.80;3.30;;;;;;;27.36;33.28;101107.38;109621;1242;58346;-68
2023/05/31 10:34:24;;;;;;;7.60;3.70;;;;;;;27.04;34.36;101111.62;109568;1240;74433;-68
2023/05/31 10:36:54;;;;;;;8.80;4.10;;;;;;;26.80;34.08;101112.80;109469;1240;73161;-69
2023/05/31 10:39:44;;;;;;;8.00;3.70;;;;;;;26.73;32.74;101103.65;109459;1241;71228;-69
2023/05/31 10:42:57;;;;;;;6.90;3.30;;;;;;;27.38;32.86;101101.98;109860;1242;62857;-68
2023/05/31 10:45:50;;;;;;;5.50;3.20;;;;;;;28.01;32.49;101101.88;109603;1240;57679;-67
2023/05/31 10:48:39;;;;;;;6.90;3.20;;;;;;;28.30;31.90;101106.09;109821;1242;58259;-69
2023/05/31 10:51:10;;;;;;;7.20;3.20;;;;;;;28.24;29.95;101104.11;109927;1242;63777;-69
2023/05/31 10:53:45;;;;;;;10.70;3.60;;;;;;;28.39;28.51;101099.73;109819;1240;71377;-67
2023/05/31 10:56:18;;;;;;;5.90;3.10;;;;;;;28.89;30.25;101097.77;109844;1242;59949;-69
2023/05/31 10:58:53;;;;;;;7.70;3.20;;;;;;;28.84;29.33;101100.64;109855;1242;73158;-69
2023/05/31 11:01:22;;;;;;;7.30;3.30;;;;;;;29.47;28.53;101094.49;109631;1241;58259;-68
2023/05/31 11:03:54;;;;;;;6.60;3.40;;;;;;;29.25;27.22;101093.63;109680;1244;60368;-68
2023/05/31 11:06:30;;;;;;;7.60;3.20;;;;;;;29.35;27.96;101091.59;109612;1241;73675;-68
2023/05/31 11:09:10;;;;;;;6.30;3.30;;;;;;;29.94;27.53;101093.14;109778;1240;62139;-68
2023/05/31 11:11:40;;;;;;;4.20;2.90;;;;;;;29.99;27.08;101081.05;109882;1240;70556;-68
2023/05/31 11:14:15;;;;;;;8.50;3.10;;;;;;;30.07;26.79;101072.12;109622;1240;74097;-68
2023/05/31 11:16:48;;;;;;;4.20;3.20;;;;;;;30.21;25.78;101079.11;109780;1242;60532;-69
2023/05/31 11:19:21;;;;;;;6.20;3.20;;;;;;;30.27;26.11;101076.45;109949;1240;57894;-69
2023/05/31 11:21:55;;;;;;;6.80;3.10;;;;;;;30.07;26.14;101074.98;109697;1241;74733;-69
2023/05/31 11:24:52;;;;;;;6.40;3.30;;;;;;;30.28;25.56;101073.27;109794;1241;70727;-68
2023/05/31 11:27:40;;;;;;;7.90;3.40;;;;;;;30.60;25.96;101070.71;109672;1240;62244;-68
2023/05/31 11:30:13;;;;;;;7.60;3.90;;;;;;;30.74;26.41;101070.29;109650;1241;74238;-69
2023/05/31 11:32:42;;;;;;;4.20;3.00;;;;;;;30.85;25.88;101073.30;109777;1242;61192;-69
2023/05/31 11:35:16;;;;;;;5.80;3.00;;;;;;;31.09;25.38;101069.60;109855;1241;57772;-70